首页
METAR-TAF:

METAR-TAF

机场 :

波普拉德, 斯洛伐克

纬度: 49-04N, 经度: 020-15E, 海拔: 694米

当前天气观测

该预报发布于31分钟前的15:00 UTC
风速1节,风向多变
温度 18°C
湿度 94%
气压 1019 hPa
能见度10公里或以上
散云层高于2000英尺
多云层高于3300英尺, 积雨云.
小阵雨

METAR: LZTT 181500Z VRB01KT 9999 -SHRA SCT020 BKN033CB 18/17 Q1019 NOSIG

时间: 17:31 (15:31 UTC)

预报

该预报发布于1小时和6分钟前的14:25 UTC
预报有效从18日的 14点(UTC)到 19日的 12点(UTC)
风速10节,风向东转东北
能见度10公里或以上
散云层高于4500英尺
几率 40% :
短暂存在
从 18日的 14点(UTC)到 19日的 02点(UTC)
风速15节,风向西
能見度: 7000
散云层高于4000英尺, 积雨云.
多云层高于6000英尺
雷暴, 雨
成为
从 18日的 18点(UTC)到 18日的 20点(UTC)
风速4节,风向西转西南
成为
从 19日的 06点(UTC)到 19日的 08点(UTC)
风速6节,风向东南
短暂存在
从 19日的 09点(UTC)到 19日的 12点(UTC)
散云层高于4000英尺, 塔状积云.
散云层高于5000英尺
几率 40% :
短暂存在
从 19日的 10点(UTC)到 19日的 12点(UTC)
风速10节,风向西
能見度: 5000
散云层高于4500英尺, 积雨云.
多云层高于5000英尺
雷暴, 雨

TAF: LZTT 181425Z 1814/1912 06010KT 9999 SCT045 PROB40 TEMPO 1814/1902 27015KT 7000 TSRA SCT040CB BKN060 BECMG 1818/1820 25004KT BECMG 1906/1908 14006KT TEMPO 1909/1912 SCT040TCU SCT050 PROB40 TEMPO 1910/1912 28010KT 5000 TSRA SCT045CB BKN050

超过4000个机场的气象观测和天气预报(METAR&TAF报告)。

可查询的气象台以黄色和红色小点在地图上表示。

将鼠标移到小点上方,可查看气象台名称。

然后点击查看天气观测和预报。

如需切换地图:点击带黑十字的绿色按钮放大地图;点击带横线的绿色按钮缩小地图;或者点击绿色箭头查看邻近地区的地图。


METAR-TAF: